Fort Worth Alliance Airport
KAFW : now visible

Airfield :











YOU CAN JOIN US ON...

 
LOGIN :

Register | Disclaimer

   EN    FR    IT 

 









Legend :    VFR   Marginal VFR   IFR   Intensive IFR   Very Intensive IFR
Visi :
Ceiling :
>= 8 km
>= 3000ft
5 to 8 km
1000 to 3000 ft
1500m to 5 km
500 to 1000 ft
800 to 1500m
200 to 500 ft
< 800m
< 200 ft
Symbols :   Thunderstorms  Fog  Heavy snow  Heavy precipitations  Wind > 20 kt






- Airport Elevation : 722 ft


KAFW - Fort Worth Alliance

CURRENT METAR :
  • 231453Z 18010KT 8SM SCT014 BKN020 OVC030 26/22 A2984 RMK AO2 SLP092 T02560222 51015

EXPIRED METARs :
  • 231441Z 18011KT 8SM SCT013 BKN020 OVC029 26/22 A2984 RMK AO2 T02560222
  • 231353Z 15006KT 7SM BKN011 BKN019 OVC027 24/22 A2984 RMK AO2 SLP092 T02440222
  • 231253Z 17008KT 6SM BR OVC010 24/22 A2982 RMK AO2 CIG 009V015 SLP086 T02390222
  • 231153Z 18008KT 7SM OVC011 24/22 A2980 RMK AO2 SLP078 70039 T02390217 10239 20228 50003
  • 231053Z 05004KT 9SM OVC010 23/22 A2982 RMK AO2 SLP085 T02330217

TAF KAFW
Valid from the 23 at 15:00 until the 24 at 12:00 UTC


231450Z 2315/2412 17012KT P6SM SCT011 BKN021
TEMPO 2315/2317 BKN011
FM231700 17014KT P6SM SCT025 BKN035
FM231800 18014KT P6SM VCTS SCT025 BKN040CB
FM240000 15013KT P6SM BKN035
FM240800 16014KT P6SM BKN025
KZFW FIR / North America



MET'MAP, your aeronautical weather chart ! - Copyright ORBIFLY December 2007 - Disclaimer

ORBIFLY MET'MAP TEAM :

Programming & Development : Alexandra Zaïnal
Original concept : Baudouin d'Aumeries
Technical & hardware support : Manuel Goepfert
Assistance : Marc-Olivier Méhu




SOURCES & CREDITS :

   NOAA       Earth
Advisory